Paramount Hatteras — 2CWB5 — position and weather

sailwx.info

Track history (hours):
 
Tides and Currents Weather Stations Pressure Air Temp Water Temp Dewpoint Dewpoint Depression Visibility Wind Speed Wind Dir Waves Ship Positions

Paramount Hatteras

Last reported at 2017-Nov-20 00:30 UTC. Time now 2017-Nov-22 07:00 UTC.
Position N 25°58' W 079°31'.

Length 250 m; draft 11.6 m.

Type: Tanker. MMSI: 235076276.

Date/timePositionNaut miles runAvg speedWind from/ knotsBaromVisibWave heightAir tempDewpointWater temp
2017-Nov-20 00:30N 25°58' W 079°31'714.0
2017-Nov-20 00:00N 25°52' W 079°34'713.7
2017-Nov-19 23:30N 25°48' W 079°41'714.0
2017-Nov-19 23:00N 25°45' W 079°47'714.0
2017-Nov-19 22:30N 25°41' W 079°54'714.5
2017-Nov-19 22:01N 25°34' W 079°57'714.8
2017-Nov-19 21:30N 25°27' W 079°59'814.8
2017-Nov-19 21:00N 25°19' W 080°01'  
2017-Nov-17 00:58N 29°41' W 093°50'  
Track history (hours):
 
Tides and Currents Weather Stations Pressure Air Temp Water Temp Dewpoint Dewpoint Depression Visibility Wind Speed Wind Dir Waves Ship Positions

Paramount Hatteras

Last reported at 2017-Nov-20 00:30 UTC. Time now 2017-Nov-22 07:00 UTC.
Position N 25°58' W 079°31'.

Length 250 m; draft 11.6 m.

Type: Tanker. MMSI: 235076276.

Date/timePositionNaut miles runAvg speedWind from/ knotsBaromVisibWave heightAir tempDewpointWater temp
2017-Nov-20 00:30N 25°58' W 079°31'714.0
2017-Nov-20 00:00N 25°52' W 079°34'713.7
2017-Nov-19 23:30N 25°48' W 079°41'714.0
2017-Nov-19 23:00N 25°45' W 079°47'714.0
2017-Nov-19 22:30N 25°41' W 079°54'714.5
2017-Nov-19 22:01N 25°34' W 079°57'714.8
2017-Nov-19 21:30N 25°27' W 079°59'814.8
2017-Nov-19 21:00N 25°19' W 080°01'  
2017-Nov-17 00:58N 29°41' W 093°50'  

Dump ship's entire track history